x

Jonesport, Me - 20 Nm Se Of Jonesport, Me (44027) Wave Buoy

12:50pm - Wed 24th Aug 2016 All times are ADT. -3 hours from GMT.

  • Sig Wave height 1.6ft
  • Swell Direction
  • Peak Period 4s
  • Average Period 4s
  • Wind
    11mph
  • Sea Temp 59°f
  • Air Temp 60°f
  • Sea Pressure 1022.2mb
  • Jonesport, Me - 20 Nm Se Of Jonesport, Me
  • Jonesport, Me - 20 Nm Se Of Jonesport, Me

More Historic Weather Station data

Upgrade to MSW Pro to gain access to the past 30 days of data for over 8000 Wavebouys and Weather Stations around the globe.

Join Pro

Comparision Forecast

View Surf forecast
   
Wed 08/24 12:50pm 1.6ft 4s 4s 11
mph
1022.2mb 59f 60f
11:50am 1.3ft 4s 4s 11
mph
1022.4mb 58f 60f
10:50am 1.6ft 4s 4s 9
mph
1022.4mb 58f 60f
9:50am 1.3ft 4s 5s 9
mph
1022.2mb 58f 60f
8:50am 1.3ft 4s 4s 9
mph
1022.1mb 57f 60f
6:50am 1.6ft 4s 4s 9 11 mph 1021.1mb 57f 59f
5:50am 1.6ft 4s 4s 11 13 mph 1021mb 57f 59f
4:50am 1.6ft 4s 4s 11 13 mph 1021.3mb 57f 59f
3:50am 2ft 4s 4s 13
mph
1021.1mb 57f 60f
2:50am 2.5ft 4s 4s 13 16 mph 1021.5mb 57f 60f
1:50am 2ft 4s 4s 13 16 mph 1022mb 57f 60f
12:50am 2.5ft 4s 4s 13 16 mph 1022.1mb 57f 60f
Tue 08/23 11:50pm 2.5ft 5s 4s 11 13 mph 1022.3mb 57f 61f
10:50pm 2.5ft 5s 4s 13 16 mph 1022.1mb 57f 61f
9:50pm 2.5ft 5s 4s 13 16 mph 1021.8mb 57f 61f
8:50pm 2.5ft 5s 4s 13 16 mph 1021.4mb 57f 60f
7:50pm 2.5ft 4s 4s 16 18 mph 1021mb 57f 61f
6:50pm 2.5ft 5s 4s 16 18 mph 1020.3mb 58f 61f
5:50pm 2ft 4s 4s 18 20 mph 1020.6mb 58f 61f
4:50pm 2ft 5s 4s 18 20 mph 1020.7mb 58f 60f
3:50pm 2ft 5s 4s 18 20 mph 1020.9mb 58f 61f
2:50pm 2ft 5s 4s 16 18 mph 1021mb 58f 60f
1:50pm 2.5ft 5s 4s 16 18 mph 1021.5mb 57f 59f
12:50pm 2.5ft 3s 4s 16 18 mph 1021.2mb 57f 59f
11:50am 1.6ft 5s 4s 11 13 mph 1021.3mb 57f 58f
10:50am 1.6ft 6s 4s 9 11 mph 1021.4mb 57f 58f
9:50am 1.6ft 4s 4s 13 16 mph 1021mb 56f 57f
8:50am 1.6ft 5s 4s 13
mph
1020.2mb 56f 56f
7:50am 1.6ft 7s 4s 13
mph
1019.8mb 57f 57f
5:50am 2ft 5s 4s 13 16 mph 1018.2mb 58f 57f
4:50am 2.5ft 5s 4s 16 18 mph 1017.8mb 58f 57f
3:50am 2.5ft 5s 4s 16
mph
1017.3mb 58f 58f
2:50am 2.5ft 5s 4s 13 16 mph 1016.5mb 57f 58f
1:50am 2.5ft 4s 4s 13 18 mph 1016mb 57f 58f
12:50am 2.5ft 5s 4s 16 18 mph 1015.2mb 57f 58f
Mon 08/22 11:50pm 2.5ft 4s 4s 13 18 mph 1014.9mb 56f 58f
10:50pm 2.5ft 5s 4s 16 18 mph 1014mb 56f 58f
9:50pm 2ft 5s 4s 13 16 mph 1013.4mb 56f 58f
8:50pm 2.5ft 5s 4s 13 16 mph 1012.1mb 57f 59f
7:50pm 2ft 5s 4s 20 25 mph 1010.6mb 57f 61f
6:50pm 2ft 5s 5s 9 11 mph 1009.4mb 59f 61f
5:50pm 2ft 5s 5s 9 11 mph 1008.4mb 59f 62f
4:50pm 2.5ft 5s 4s 9
mph
1007.5mb 59f 61f
3:50pm 2.5ft 4s 4s 16 18 mph 1006.7mb 59f 62f
2:50pm 2.5ft 4s 4s 11 13 mph 1006.3mb 59f 62f
1:50pm 2.5ft 4s 4s 16 20 mph 1006.1mb 59f 64f
12:50pm 2.5ft 4s 4s 16 18 mph 1006.6mb 59f 64f
11:50am 2.5ft 4s 4s 16 18 mph 1006.6mb 59f 62f
10:50am 2.5ft 4s 4s 13 16 mph 1007.2mb 59f 61f
9:50am 2ft 4s 4s 13 16 mph 1007.6mb 59f 61f
8:50am 2ft 4s 4s 13 16 mph 1008mb 59f 60f
7:50am 1.6ft 4s 4s 13 16 mph 1008.2mb 59f 61f
6:50am 1.6ft 4s 4s 13 16 mph 1008.7mb 59f 61f
5:50am 1.6ft 6s 4s 13
mph
1008.9mb 59f 61f
4:50am 1.6ft 4s 4s 11
mph
1009.3mb 59f 61f
3:50am 1.6ft 14s 4s 11 13 mph 1009.8mb 60f 62f
2:50am 1.6ft 4s 4s 11
mph
1010.6mb 59f 61f
1:50am 1.6ft 4s 4s 9 11 mph 1011.2mb 59f 60f
Sun 08/21 11:50pm 2ft 4s 4s 7 9 mph 1013.2mb 59f 60f
10:50pm 2ft 4s 4s 4 7 mph 1013.7mb 59f 60f
9:50pm 2ft 4s 4s 2
mph
1014.5mb 59f 60f
8:50pm 2ft 5s 4s 7
mph
1014.5mb 60f 59f
7:50pm 1.6ft 4s 4s 9 13 mph 1014.3mb 60f 59f
6:50pm 1.6ft 14s 4s 11 16 mph 1013.7mb 60f 60f
5:50pm 1.6ft 4s 4s 13 16 mph 1014.2mb 60f 62f
4:50pm 1.6ft 4s 4s 11
mph
1014.7mb 60f 62f
3:50pm 1.6ft 4s 4s 9
mph
1015.4mb 60f 60f
2:50pm 1.6ft 3s 4s 9
mph
1015.9mb 59f 59f
1:50pm 1.6ft 3s 3s 13 16 mph 1016.2mb 59f 60f
12:50pm 1.6ft 3s 3s 13 16 mph 1016.6mb 59f 60f
11:50am 1.6ft 14s 4s 13 16 mph 1017.2mb 59f 60f
10:50am 1.3ft 7s 4s 11 13 mph 1017.9mb 59f 59f
9:50am 1.3ft 4s 4s 7 9 mph 1018mb 59f 59f
8:50am 1.3ft 3s 4s  -  2 mph 1018.3mb 58f 58f
7:50am 1.3ft 4s 4s 7 9 mph 1017.7mb 58f 57f
6:50am 1.3ft 4s 4s 7 9 mph 1017.6mb 58f 57f
5:50am 1.3ft 15s 4s 11 13 mph 1017mb 58f 58f
4:50am 1.3ft 14s 4s 11 13 mph 1016.8mb 57f 58f
3:50am 1ft 14s 5s 11 13 mph 1017mb 57f 58f
2:50am 1ft 7s 5s 7 9 mph 1017.2mb 57f 57f
1:50am 1ft 7s 6s 7 9 mph 1017.2mb 58f 57f
12:50am 1ft 13s 5s 9 11 mph 1017.3mb 58f 58f
Sat 08/20 11:50pm 1ft 14s 6s 11 13 mph 1017.5mb 58f 59f
10:50pm 1ft 8s 5s 9 11 mph 1017.7mb 59f 60f
9:50pm 1ft 14s 6s 7 9 mph 1017.8mb 58f 60f
8:50pm 1ft 15s 6s 7
mph
1017.4mb 59f 60f
7:50pm 1ft 15s 6s 7 9 mph 1017.2mb 59f 60f
6:50pm 1ft 5s 5s 7
mph
1017.3mb 58f 60f
5:50pm 1.3ft 7s 5s 4 7 mph 1017.3mb 58f 59f